Time;durP1;ratioP1;P1;durP2;ratioP2;P2;SDS_P1;SDS_P2;PMS_P1;PMS_P2;Temp;Humidity;BMP_temperature;BMP_pressure;BME280_temperature;BME280_humidity;BME280_pressure;Samples;Min_cycle;Max_cycle;Signal;HPM_P1;HPM_P2
2023/10/28 00:00:07;;;;;;;2.10;1.70;;;;;;;6.46;100.00;94993.06;5029379;28;105550;-82
2023/10/28 00:02:36;;;;;;;1.63;1.30;;;;;;;6.73;100.00;94990.22;5032071;28;105145;-82
2023/10/28 00:05:05;;;;;;;1.80;1.70;;;;;;;6.73;100.00;94992.88;5029158;28;105604;-81
2023/10/28 00:07:32;;;;;;;2.77;1.67;;;;;;;6.82;100.00;94997.38;5028659;28;105813;-81
2023/10/28 00:09:59;;;;;;;2.23;1.67;;;;;;;6.88;100.00;94992.91;5029131;28;102005;-81
2023/10/28 00:12:28;;;;;;;3.13;1.90;;;;;;;6.71;100.00;95006.34;5028454;27;105375;-81
2023/10/28 00:14:56;;;;;;;1.90;1.80;;;;;;;6.66;100.00;95005.53;5028412;28;105489;-81
2023/10/28 00:17:24;;;;;;;1.67;1.57;;;;;;;6.89;100.00;94999.78;5028755;28;101986;-81
2023/10/28 00:19:52;;;;;;;2.00;1.80;;;;;;;6.93;100.00;95011.44;5029078;28;105468;-81
2023/10/28 00:22:19;;;;;;;2.37;1.60;;;;;;;7.01;100.00;95018.84;5028566;28;105046;-81
2023/10/28 00:24:46;;;;;;;1.33;1.27;;;;;;;7.11;100.00;95019.66;5032559;28;102152;-82
2023/10/28 00:27:14;;;;;;;3.60;1.60;;;;;;;7.20;100.00;95022.59;5028260;28;104848;-82
2023/10/28 00:29:41;;;;;;;1.60;1.50;;;;;;;7.33;100.00;95037.94;5029110;28;101884;-82
2023/10/28 00:32:09;;;;;;;1.80;1.70;;;;;;;7.46;100.00;95032.13;5028888;28;105355;-82
2023/10/28 00:34:38;;;;;;;1.57;1.30;;;;;;;7.43;100.00;95045.88;5028274;28;105790;-82
2023/10/28 00:37:06;;;;;;;1.93;1.73;;;;;;;7.52;100.00;95045.09;5030062;28;101822;-82
2023/10/28 00:39:33;;;;;;;3.87;2.17;;;;;;;7.59;100.00;95058.06;5028839;28;105258;-82
2023/10/28 00:42:02;;;;;;;3.17;2.33;;;;;;;7.84;100.00;95087.16;5028070;28;105602;-82
2023/10/28 00:44:32;;;;;;;1.90;1.80;;;;;;;8.09;100.00;95132.97;5028779;28;101888;-82
2023/10/28 00:46:59;;;;;;;1.40;1.33;;;;;;;8.36;100.00;95138.81;5031387;28;105290;-82
2023/10/28 00:49:28;;;;;;;1.20;1.10;;;;;;;8.71;100.00;95130.00;5028541;28;101907;-82
2023/10/28 00:51:55;;;;;;;0.90;0.90;;;;;;;8.99;100.00;95108.19;5028567;28;105232;-82
2023/10/28 00:54:26;;;;;;;0.63;0.63;;;;;;;9.33;100.00;95103.78;5028067;28;105392;-82
2023/10/28 00:56:54;;;;;;;0.97;0.90;;;;;;;9.28;100.00;95098.50;5028300;27;102479;-82
2023/10/28 00:59:21;;;;;;;0.70;0.70;;;;;;;9.27;100.00;95104.91;5028553;28;105163;-82
2023/10/28 01:01:48;;;;;;;1.33;0.80;;;;;;;9.33;100.00;95101.91;5027772;28;104647;-82
2023/10/28 01:04:16;;;;;;;0.93;0.70;;;;;;;9.41;100.00;95103.22;5028524;28;102018;-82
2023/10/28 01:06:43;;;;;;;0.70;0.70;;;;;;;9.38;100.00;95111.72;5028330;28;105026;-82
2023/10/28 01:09:11;;;;;;;0.93;0.60;;;;;;;9.37;100.00;95107.50;5032622;28;102931;-82
2023/10/28 01:11:40;;;;;;;0.50;0.50;;;;;;;9.42;100.00;95107.44;5028145;28;104365;-82
2023/10/28 01:14:07;;;;;;;0.57;0.57;;;;;;;9.41;100.00;95106.66;5027719;28;105092;-82
2023/10/28 01:16:36;;;;;;;0.50;0.50;;;;;;;9.44;100.00;95102.69;5028183;28;102339;-82
2023/10/28 01:19:04;;;;;;;0.40;0.40;;;;;;;9.46;100.00;95097.88;5028561;28;105051;-82
2023/10/28 01:21:34;;;;;;;0.60;0.47;;;;;;;9.50;100.00;95102.38;5027423;28;105621;-82
2023/10/28 01:24:01;;;;;;;0.93;0.50;;;;;;;9.54;100.00;95097.31;5029789;27;101959;-82
2023/10/28 01:26:28;;;;;;;0.40;0.40;;;;;;;9.61;100.00;95103.09;5031777;28;105824;-82
2023/10/28 01:28:55;;;;;;;0.97;0.60;;;;;;;9.60;100.00;95080.28;5034726;28;104275;-82
2023/10/28 01:31:22;;;;;;;0.43;0.43;;;;;;;9.60;100.00;95091.69;5031505;28;104811;-82
2023/10/28 01:33:49;;;;;;;0.40;0.40;;;;;;;9.65;100.00;95090.88;5030887;28;105263;-82
2023/10/28 01:36:16;;;;;;;0.30;0.30;;;;;;;9.65;100.00;95082.91;5031903;28;102007;-82
2023/10/28 01:38:44;;;;;;;0.30;0.30;;;;;;;9.63;100.00;95091.16;5031289;28;105343;-82
2023/10/28 01:41:13;;;;;;;0.50;0.50;;;;;;;9.66;100.00;95103.06;5031031;28;105621;-82
2023/10/28 01:43:44;;;;;;;0.40;0.40;;;;;;;9.75;100.00;95098.78;5031357;28;102107;-82
2023/10/28 01:46:11;;;;;;;0.57;0.50;;;;;;;9.67;100.00;95102.81;5031602;28;104849;-82
2023/10/28 01:48:38;;;;;;;3.50;0.60;;;;;;;9.62;100.00;95107.34;5030633;28;105747;-80
2023/10/28 01:51:05;;;;;;;0.40;0.40;;;;;;;9.72;100.00;95109.94;5034875;28;101839;-80
2023/10/28 01:53:32;;;;;;;0.50;0.40;;;;;;;9.80;100.00;95104.03;5030589;28;105204;-80
2023/10/28 01:56:00;;;;;;;0.40;0.40;;;;;;;9.82;100.00;95107.22;5030901;27;101920;-80
2023/10/28 01:58:28;;;;;;;0.77;0.33;;;;;;;9.83;100.00;95108.78;5031265;28;105657;-80
2023/10/28 02:00:55;;;;;;;0.83;0.50;;;;;;;9.79;100.00;95110.41;5030552;28;105458;-80
2023/10/28 02:03:22;;;;;;;0.50;0.50;;;;;;;9.78;100.00;95106.16;5031135;28;101839;-80
2023/10/28 02:05:49;;;;;;;1.20;0.60;;;;;;;9.76;100.00;95118.94;5031165;28;105136;-80
2023/10/28 02:08:16;;;;;;;0.33;0.33;;;;;;;9.88;100.00;95119.38;5030388;28;104517;-80
2023/10/28 02:10:43;;;;;;;0.50;0.50;;;;;;;9.94;100.00;95113.75;5030990;28;101795;-80
2023/10/28 02:13:12;;;;;;;0.70;0.70;;;;;;;9.85;100.00;95111.94;5017397;28;105339;-80
2023/10/28 02:15:39;;;;;;;0.20;0.20;;;;;;;9.87;100.00;95107.19;5030970;28;101924;-80
2023/10/28 02:18:06;;;;;;;0.40;0.30;;;;;;;9.96;100.00;95118.78;5030848;28;104037;-80
2023/10/28 02:20:33;;;;;;;1.63;1.20;;;;;;;9.90;100.00;95118.03;5030251;28;104978;-80
2023/10/28 02:23:00;;;;;;;2.57;0.97;;;;;;;9.91;100.00;95109.00;5030797;28;101904;-80
2023/10/28 02:25:28;;;;;;;1.30;1.03;;;;;;;9.98;100.00;95103.38;5030883;28;104958;-80
2023/10/28 02:27:55;;;;;;;1.43;0.60;;;;;;;9.99;100.00;95110.28;5031543;27;102770;-80
2023/10/28 02:30:23;;;;;;;1.13;1.00;;;;;;;10.02;100.00;95104.38;5030670;28;101873;-80
2023/10/28 02:32:50;;;;;;;2.43;1.67;;;;;;;10.05;100.00;95098.56;5030560;28;105282;-80
2023/10/28 02:35:18;;;;;;;1.63;1.50;;;;;;;10.02;100.00;95107.84;5033348;27;105920;-79
2023/10/28 02:37:44;;;;;;;1.40;1.10;;;;;;;10.03;100.00;95111.31;5030455;28;105077;-79
2023/10/28 02:40:12;;;;;;;2.50;1.80;;;;;;;10.00;100.00;95111.84;5030015;28;105729;-79
2023/10/28 02:42:41;;;;;;;0.57;0.57;;;;;;;10.04;100.00;95110.28;5030352;28;102000;-80
2023/10/28 02:45:09;;;;;;;0.60;0.60;;;;;;;10.00;100.00;95104.69;5030482;28;105444;-80
2023/10/28 02:47:38;;;;;;;0.87;0.40;;;;;;;10.04;100.00;95112.91;5029946;28;105098;-80
2023/10/28 02:50:05;;;;;;;0.63;0.60;;;;;;;10.12;100.00;95120.28;5030431;28;101882;-80
2023/10/28 02:52:32;;;;;;;0.90;0.60;;;;;;;10.03;100.00;95106.78;5030408;28;104903;-80
2023/10/28 02:54:59;;;;;;;1.27;0.57;;;;;;;10.04;100.00;95097.00;5029330;27;105177;-80
2023/10/28 02:57:26;;;;;;;0.90;0.50;;;;;;;10.00;100.00;95096.72;5033583;28;101898;-80
2023/10/28 02:59:53;;;;;;;1.30;0.70;;;;;;;9.95;100.00;95099.41;5029645;28;105500;-80
2023/10/28 03:02:20;;;;;;;0.40;0.40;;;;;;;9.96;100.00;95100.19;5030303;28;101962;-80
2023/10/28 03:04:48;;;;;;;0.40;0.40;;;;;;;9.93;100.00;95103.41;5030311;28;105417;-80
2023/10/28 03:07:15;;;;;;;0.57;0.40;;;;;;;9.87;100.00;95094.69;5029614;28;105431;-80
2023/10/28 03:09:42;;;;;;;1.67;0.40;;;;;;;9.85;100.00;95096.84;5030190;28;101990;-80
2023/10/28 03:12:12;;;;;;;0.77;0.30;;;;;;;9.78;100.00;95100.88;5029925;28;105183;-80
2023/10/28 03:14:39;;;;;;;0.40;0.40;;;;;;;9.75;100.00;95096.91;5029434;28;105252;-80
2023/10/28 03:17:06;;;;;;;1.37;0.50;;;;;;;9.70;100.00;95099.59;5029975;28;102516;-80
2023/10/28 03:19:33;;;;;;;0.30;0.30;;;;;;;9.69;100.00;95102.50;5032534;28;105409;-79
2023/10/28 03:22:02;;;;;;;0.37;0.37;;;;;;;9.64;100.00;95098.03;5029979;28;101972;-79
2023/10/28 03:24:31;;;;;;;0.57;0.33;;;;;;;9.63;100.00;95090.34;5029801;28;105183;-80
2023/10/28 03:26:58;;;;;;;0.30;0.30;;;;;;;9.61;100.00;95100.44;5029081;28;104930;-80
2023/10/28 03:29:26;;;;;;;0.50;0.40;;;;;;;9.60;100.00;95085.59;5029755;28;101859;-80
2023/10/28 03:31:53;;;;;;;0.97;0.40;;;;;;;9.58;100.00;95103.63;5029736;28;105295;-80
2023/10/28 03:34:20;;;;;;;0.57;0.47;;;;;;;9.55;100.00;95101.56;5029106;28;105753;-80
2023/10/28 03:36:47;;;;;;;0.30;0.30;;;;;;;9.52;100.00;95099.44;5029820;28;102102;-80
2023/10/28 03:39:17;;;;;;;0.30;0.30;;;;;;;9.52;100.00;95100.25;5032442;28;105495;-80
2023/10/28 03:41:45;;;;;;;0.60;0.50;;;;;;;9.49;100.00;95098.13;5029332;28;102051;-80
2023/10/28 03:44:12;;;;;;;0.40;0.40;;;;;;;9.48;100.00;95093.88;5029672;28;105361;-80
2023/10/28 03:46:38;;;;;;;0.53;0.40;;;;;;;9.47;100.00;95097.59;5028384;27;105114;-80
2023/10/28 03:49:06;;;;;;;0.40;0.40;;;;;;;9.45;100.00;95093.66;5029557;28;101927;-80
2023/10/28 03:51:34;;;;;;;0.40;0.40;;;;;;;9.43;100.00;95087.81;5030857;28;102915;-80
2023/10/28 03:54:01;;;;;;;0.40;0.40;;;;;;;9.38;100.00;95099.25;5028697;28;105171;-80
2023/10/28 03:56:29;;;;;;;0.40;0.40;;;;;;;9.44;100.00;95100.03;5028730;28;101863;-80
2023/10/28 03:58:57;;;;;;;0.30;0.30;;;;;;;9.44;100.00;95106.09;5030867;28;102965;-80
2023/10/28 04:01:24;;;;;;;1.20;0.70;;;;;;;9.46;100.00;95097.88;5033645;28;102782;-80
2023/10/28 04:03:50;;;;;;;0.60;0.60;;;;;;;9.41;100.00;95103.22;5029204;28;104275;-80
2023/10/28 04:06:17;;;;;;;0.60;0.60;;;;;;;9.39;100.00;95100.81;5028226;28;104684;-80
2023/10/28 04:08:44;;;;;;;0.50;0.50;;;;;;;9.39;100.00;95108.00;5029104;28;102371;-80
2023/10/28 04:11:11;;;;;;;1.57;1.40;;;;;;;9.36;100.00;95101.38;5030433;28;102951;-80
2023/10/28 04:13:40;;;;;;;2.10;1.20;;;;;;;9.37;100.00;95104.84;5028791;28;104469;-80
2023/10/28 04:16:07;;;;;;;1.87;0.70;;;;;;;9.31;100.00;95097.94;5029036;28;101949;-80
2023/10/28 04:18:34;;;;;;;0.87;0.70;;;;;;;9.26;100.00;95096.13;5028829;28;104930;-80
2023/10/28 04:21:01;;;;;;;1.17;0.80;;;;;;;9.19;100.00;95100.13;5028379;28;105539;-80
2023/10/28 04:23:28;;;;;;;2.90;0.70;;;;;;;9.20;100.00;95107.03;5032348;28;101936;-80
2023/10/28 04:25:56;;;;;;;1.10;0.80;;;;;;;9.18;100.00;95109.16;5029690;28;102872;-80
2023/10/28 04:28:23;;;;;;;0.60;0.60;;;;;;;9.09;100.00;95119.53;5029001;28;101828;-80
2023/10/28 04:30:57;;;;;;;1.07;0.60;;;;;;;9.03;100.00;95117.19;5028966;28;105487;-80
2023/10/28 04:33:25;;;;;;;2.70;0.93;;;;;;;8.94;100.00;95129.44;5028346;28;105574;-80
2023/10/28 04:35:53;;;;;;;0.80;0.67;;;;;;;8.87;100.00;95124.41;5028795;28;101843;-80
2023/10/28 04:38:20;;;;;;;1.00;0.90;;;;;;;8.80;100.00;95128.41;5028699;28;104782;-80
2023/10/28 04:40:47;;;;;;;0.70;0.70;;;;;;;8.86;100.00;95129.97;5028108;28;105709;-80
2023/10/28 04:43:13;;;;;;;1.60;1.50;;;;;;;8.78;100.00;95136.59;5028799;28;102182;-80
2023/10/28 04:45:42;;;;;;;2.70;1.47;;;;;;;8.70;100.00;95141.66;5031615;28;105258;-79
2023/10/28 04:48:10;;;;;;;3.20;2.20;;;;;;;8.67;100.00;95144.88;5028801;28;101912;-79
2023/10/28 04:50:37;;;;;;;1.40;1.30;;;;;;;8.61;100.00;95144.06;5028773;28;105352;-79
2023/10/28 04:53:04;;;;;;;1.60;1.50;;;;;;;8.54;100.00;95148.06;5027751;28;105796;-79
2023/10/28 04:55:31;;;;;;;1.20;1.10;;;;;;;8.51;100.00;95146.72;5028368;27;101933;-79
2023/10/28 04:57:58;;;;;;;2.00;1.20;;;;;;;8.39;100.00;95148.88;5028714;28;105200;-79
2023/10/28 05:00:25;;;;;;;1.67;1.40;;;;;;;8.38;100.00;95144.63;5031560;28;105185;-79
2023/10/28 05:02:52;;;;;;;1.33;1.23;;;;;;;8.43;100.00;95162.38;5032186;28;102051;-79
2023/10/28 05:05:21;;;;;;;1.80;1.70;;;;;;;8.40;100.00;95162.91;5031948;28;105309;-79
2023/10/28 05:07:47;;;;;;;1.37;1.27;;;;;;;8.37;100.00;95160.78;5034821;28;105967;-80
2023/10/28 05:10:16;;;;;;;3.03;1.33;;;;;;;8.35;100.00;95161.03;5032214;28;103866;-80
2023/10/28 05:12:42;;;;;;;1.40;1.30;;;;;;;8.35;100.00;95163.69;5031224;28;103790;-80
2023/10/28 05:15:10;;;;;;;2.20;1.20;;;;;;;8.33;100.00;95171.13;5031995;28;101878;-80
2023/10/28 05:17:38;;;;;;;1.07;1.07;;;;;;;8.40;100.00;95165.56;5031753;28;105563;-80
2023/10/28 05:20:06;;;;;;;1.40;1.30;;;;;;;8.32;100.00;95174.03;5031167;28;105066;-80
2023/10/28 05:22:35;;;;;;;1.40;1.30;;;;;;;8.28;100.00;95181.72;5031729;28;101984;-80
2023/10/28 05:25:04;;;;;;;1.30;1.20;;;;;;;8.22;100.00;95176.66;5033063;28;102634;-80
2023/10/28 05:27:31;;;;;;;1.47;1.30;;;;;;;8.22;100.00;95179.31;5031080;28;105166;-80
2023/10/28 05:29:58;;;;;;;1.33;1.23;;;;;;;8.16;100.00;95175.06;5036468;28;101806;-80
2023/10/28 05:32:25;;;;;;;1.50;1.40;;;;;;;8.11;100.00;95180.34;5030818;28;105482;-80
2023/10/28 05:34:52;;;;;;;1.60;1.50;;;;;;;7.97;100.00;95185.34;5031665;28;101912;-80
2023/10/28 05:37:19;;;;;;;1.63;1.40;;;;;;;7.96;100.00;95191.72;5031467;28;105245;-80
2023/10/28 05:39:47;;;;;;;1.23;1.20;;;;;;;7.96;100.00;95181.13;5030772;28;105635;-80
2023/10/28 05:42:15;;;;;;;1.50;1.40;;;;;;;7.98;100.00;95188.81;5031470;28;101911;-80
2023/10/28 05:44:42;;;;;;;1.77;1.40;;;;;;;7.89;100.00;95179.78;5031597;28;104444;-80
2023/10/28 05:47:09;;;;;;;1.30;1.20;;;;;;;7.88;100.00;95188.78;5031013;28;105185;-80
2023/10/28 05:49:36;;;;;;;1.50;1.40;;;;;;;7.86;100.00;95185.63;5034913;28;101731;-80
2023/10/28 05:52:03;;;;;;;3.83;2.97;;;;;;;7.84;100.00;95179.78;5030556;28;106020;-79
2023/10/28 05:54:30;;;;;;;3.17;2.67;;;;;;;7.74;100.00;95183.22;5031251;28;101928;-79
2023/10/28 05:56:59;;;;;;;3.33;2.70;;;;;;;7.64;100.00;95180.53;5031031;27;105248;-79
2023/10/28 05:59:26;;;;;;;2.67;2.20;;;;;;;7.68;100.00;95189.56;5030549;28;105141;-79
2023/10/28 06:01:53;;;;;;;3.10;2.10;;;;;;;7.56;100.00;95191.63;5031212;28;101910;-79
2023/10/28 06:04:21;;;;;;;2.33;2.17;;;;;;;7.48;100.00;95194.78;5032502;28;102880;-79
2023/10/28 06:06:48;;;;;;;2.40;2.20;;;;;;;7.48;100.00;95200.06;5030603;28;105519;-79
2023/10/28 06:09:16;;;;;;;1.90;1.70;;;;;;;7.45;100.00;95205.88;5031978;27;101911;-79
2023/10/28 06:11:43;;;;;;;2.00;1.80;;;;;;;7.53;100.00;95208.00;5034077;28;105511;-80
2023/10/28 06:14:12;;;;;;;1.80;1.70;;;;;;;7.53;100.00;95207.25;5030893;28;101921;-80
2023/10/28 06:16:39;;;;;;;1.70;1.60;;;;;;;7.57;100.00;95208.28;5030990;28;104953;-80
2023/10/28 06:19:06;;;;;;;2.27;2.00;;;;;;;7.56;100.00;95217.28;5030325;28;105085;-80
2023/10/28 06:21:34;;;;;;;2.20;1.67;;;;;;;7.55;100.00;95210.41;5030773;28;101901;-80
2023/10/28 06:24:01;;;;;;;1.70;1.60;;;;;;;7.53;100.00;95207.25;5030991;28;105662;-80
2023/10/28 06:26:29;;;;;;;1.43;1.23;;;;;;;7.60;100.00;95208.59;5030287;28;105736;-80
2023/10/28 06:28:58;;;;;;;1.70;1.60;;;;;;;7.71;100.00;95193.53;5030779;28;102041;-79
2023/10/28 06:31:27;;;;;;;2.90;2.10;;;;;;;7.67;100.00;95209.13;5030942;28;105034;-79
2023/10/28 06:33:54;;;;;;;1.50;1.40;;;;;;;7.77;100.00;95206.50;5033543;28;105889;-79
2023/10/28 06:36:21;;;;;;;1.60;1.50;;;;;;;7.81;100.00;95198.84;5030685;28;104886;-79
2023/10/28 06:38:48;;;;;;;2.40;1.50;;;;;;;7.86;100.00;95202.28;5029841;28;105488;-79
2023/10/28 06:41:15;;;;;;;1.50;1.40;;;;;;;7.90;100.00;95194.63;5030644;28;102072;-79
2023/10/28 06:43:43;;;;;;;1.70;1.60;;;;;;;7.94;100.00;95193.03;5030963;28;104036;-79
2023/10/28 06:46:09;;;;;;;1.70;1.60;;;;;;;7.94;100.00;95190.38;5030177;28;105497;-79
2023/10/28 06:48:39;;;;;;;1.60;1.50;;;;;;;8.05;100.00;95186.69;5031784;28;101806;-79
2023/10/28 06:51:07;;;;;;;1.87;1.50;;;;;;;8.13;100.00;95188.84;5030519;28;104729;-79
2023/10/28 06:53:34;;;;;;;1.43;1.33;;;;;;;8.23;100.00;95183.59;5029668;28;105792;-80
2023/10/28 06:56:03;;;;;;;2.00;1.50;;;;;;;8.39;100.00;95188.59;5033460;28;102428;-80
2023/10/28 06:58:30;;;;;;;1.57;1.40;;;;;;;8.50;100.00;95192.06;5029634;28;104086;-80
2023/10/28 07:00:57;;;;;;;1.47;1.37;;;;;;;8.58;100.00;95194.97;5030238;28;102257;-80
2023/10/28 07:03:25;;;;;;;1.30;1.20;;;;;;;8.77;100.00;95201.28;5030172;28;105160;-79
2023/10/28 07:05:55;;;;;;;1.20;1.20;;;;;;;8.86;100.00;95191.75;5029616;28;105175;-79
2023/10/28 07:08:22;;;;;;;1.47;1.20;;;;;;;9.00;100.00;95199.94;5030136;28;101881;-79
2023/10/28 07:10:49;;;;;;;1.13;1.13;;;;;;;9.13;100.00;95199.34;5029899;28;105063;-79
2023/10/28 07:13:16;;;;;;;1.00;1.00;;;;;;;9.25;100.00;95202.50;5029311;28;105873;-79
2023/10/28 07:15:43;;;;;;;1.10;1.10;;;;;;;9.35;100.00;95205.13;5030075;28;101824;-79
2023/10/28 07:18:10;;;;;;;1.80;1.30;;;;;;;9.58;100.00;95207.13;5032778;28;105107;-79
2023/10/28 07:20:37;;;;;;;1.17;1.10;;;;;;;9.77;100.00;95205.47;5029267;28;101848;-79
2023/10/28 07:23:05;;;;;;;1.67;1.57;;;;;;;9.85;100.00;95210.19;5029495;28;105454;-80
2023/10/28 07:25:32;;;;;;;1.73;1.63;;;;;;;9.91;100.00;95214.41;5029344;28;105115;-80
2023/10/28 07:27:59;;;;;;;2.23;2.00;;;;;;;9.93;100.00;95214.94;5029932;28;102089;-80
2023/10/28 07:30:26;;;;;;;1.80;1.70;;;;;;;10.12;100.00;95211.41;5029667;28;105487;-80
2023/10/28 07:32:53;;;;;;;1.50;1.40;;;;;;;10.35;100.00;95220.56;5030566;27;102702;-80
2023/10/28 07:35:20;;;;;;;1.30;1.20;;;;;;;10.37;100.00;95229.03;5029809;28;101929;-80
2023/10/28 07:37:47;;;;;;;3.10;1.50;;;;;;;10.30;100.00;95226.66;5029620;28;105235;-80
2023/10/28 07:40:15;;;;;;;1.30;1.20;;;;;;;10.35;100.00;95226.63;5031993;28;102029;-80
2023/10/28 07:42:43;;;;;;;1.37;1.10;;;;;;;10.35;100.00;95231.19;5029583;28;105478;-80
2023/10/28 07:45:11;;;;;;;1.17;1.00;;;;;;;10.36;100.00;95232.75;5029017;28;105703;-80
2023/10/28 07:47:38;;;;;;;2.30;1.07;;;;;;;10.39;100.00;95230.34;5029460;28;102083;-80
2023/10/28 07:50:06;;;;;;;0.87;0.87;;;;;;;10.52;100.00;95237.66;5029455;28;104296;-80
2023/10/28 07:52:33;;;;;;;1.13;1.10;;;;;;;10.61;100.00;95248.50;5028736;28;105830;-80
2023/10/28 07:55:01;;;;;;;2.37;1.60;;;;;;;10.86;100.00;95250.97;5028740;27;101971;-80
2023/10/28 07:57:30;;;;;;;1.10;1.00;;;;;;;10.94;100.00;95247.69;5029526;28;105211;-80
2023/10/28 07:59:57;;;;;;;0.90;0.90;;;;;;;11.17;100.00;95244.31;5032045;28;105503;-80
2023/10/28 08:02:24;;;;;;;0.93;0.93;;;;;;;11.29;100.00;95252.69;5029343;28;105164;-80
2023/10/28 08:04:54;;;;;;;1.00;1.00;;;;;;;11.48;100.00;95250.88;5028679;28;105433;-80
2023/10/28 08:07:21;;;;;;;1.00;1.00;;;;;;;11.66;100.00;95252.84;5029284;28;102016;-80
2023/10/28 08:09:48;;;;;;;0.90;0.90;;;;;;;12.05;100.00;95253.44;5029225;28;105489;-80
2023/10/28 08:12:15;;;;;;;1.77;0.87;;;;;;;11.72;100.00;95268.47;5028299;28;105769;-80
2023/10/28 08:14:46;;;;;;;0.80;0.80;;;;;;;11.62;100.00;95281.88;5029195;28;101839;-80
2023/10/28 08:17:13;;;;;;;2.70;1.30;;;;;;;11.66;100.00;95280.25;5029100;28;105604;-80
2023/10/28 08:19:41;;;;;;;2.03;1.60;;;;;;;11.68;100.00;95285.31;5028403;28;105170;-80
2023/10/28 08:22:08;;;;;;;1.53;1.37;;;;;;;11.63;100.00;95296.00;5032422;28;101947;-80
2023/10/28 08:24:35;;;;;;;0.93;0.93;;;;;;;11.63;100.00;95302.13;5028485;28;105916;-80
2023/10/28 08:27:02;;;;;;;1.63;1.20;;;;;;;11.68;100.00;95303.94;5029064;28;102026;-80
2023/10/28 08:29:31;;;;;;;0.90;0.90;;;;;;;11.99;100.00;95303.31;5029026;28;103868;-80
2023/10/28 08:32:00;;;;;;;1.53;0.97;;;;;;;11.91;100.00;95314.59;5028059;27;105660;-80
2023/10/28 08:34:26;;;;;;;1.00;0.90;;;;;;;11.87;100.00;95315.44;5030374;28;101813;-80
2023/10/28 08:36:53;;;;;;;0.90;0.90;;;;;;;11.92;100.00;95310.06;5028836;28;104853;-80
2023/10/28 08:39:20;;;;;;;1.40;0.90;;;;;;;12.05;100.00;95312.03;5029751;27;103089;-80
2023/10/28 08:41:47;;;;;;;1.97;1.07;;;;;;;12.24;100.00;95307.53;5028524;28;101844;-80
2023/10/28 08:44:17;;;;;;;0.80;0.80;;;;;;;12.37;100.00;95307.63;5031574;28;105484;-80
2023/10/28 08:46:44;;;;;;;0.97;0.77;;;;;;;12.61;100.00;95307.56;5028711;28;101937;-80
2023/10/28 08:49:15;;;;;;;1.27;0.90;;;;;;;12.46;100.00;95311.22;5028748;28;105222;-80
2023/10/28 08:51:47;;;;;;;0.70;0.70;;;;;;;12.64;100.00;95309.66;5028052;28;105077;-80
2023/10/28 08:54:17;;;;;;;1.83;0.90;;;;;;;12.74;100.00;95304.94;5028839;28;102180;-80
2023/10/28 08:56:45;;;;;;;0.80;0.80;;;;;;;12.60;100.00;95311.31;5028179;28;105226;-80
2023/10/28 08:59:11;;;;;;;0.93;0.90;;;;;;;12.87;100.00;95306.88;5027948;28;105307;-80
2023/10/28 09:01:40;;;;;;;0.77;0.73;;;;;;;13.04;100.00;95309.06;5028332;28;102236;-80
2023/10/28 09:04:07;;;;;;;0.70;0.70;;;;;;;13.04;100.00;95311.72;5028458;28;104951;-80
2023/10/28 09:06:35;;;;;;;1.10;0.87;;;;;;;13.29;100.00;95308.63;5031269;28;105470;-80
2023/10/28 09:09:06;;;;;;;0.83;0.80;;;;;;;13.57;100.00;95302.28;5028372;28;104110;-80
2023/10/28 09:11:33;;;;;;;1.87;1.10;;;;;;;13.48;100.00;95296.81;5027734;28;105654;-80
2023/10/28 09:14:00;;;;;;;1.10;0.93;;;;;;;13.61;100.00;95303.25;5028420;28;101984;-80
2023/10/28 09:16:27;;;;;;;3.53;0.80;;;;;;;13.88;100.00;95306.75;5028644;28;105380;-80
2023/10/28 09:18:53;;;;;;;0.70;0.70;;;;;;;14.19;100.00;95297.06;5027959;28;104399;-80
2023/10/28 09:21:20;;;;;;;1.03;0.87;;;;;;;14.01;100.00;95302.50;5028049;28;102050;-80
2023/10/28 09:23:49;;;;;;;1.20;1.10;;;;;;;14.12;100.00;95306.56;5028230;28;105146;-80
2023/10/28 09:26:16;;;;;;;0.70;0.70;;;;;;;14.05;100.00;95303.47;5027676;28;104227;-80
2023/10/28 09:28:46;;;;;;;0.70;0.70;;;;;;;13.93;100.00;95293.28;5031575;28;101861;-80
2023/10/28 09:31:23;;;;;;;0.70;0.70;;;;;;;14.28;100.00;95294.50;5027652;28;105040;-80
2023/10/28 09:33:51;;;;;;;1.90;0.80;;;;;;;14.32;100.00;95290.09;5028062;28;102356;-80
2023/10/28 09:36:18;;;;;;;0.60;0.60;;;;;;;14.37;100.00;95298.03;5028115;28;105434;-80
2023/10/28 09:38:46;;;;;;;0.70;0.70;;;;;;;14.47;100.00;95289.78;5027485;28;105456;-80
2023/10/28 09:41:18;;;;;;;1.37;1.17;;;;;;;14.69;100.00;95295.19;5028096;28;101962;-80
2023/10/28 09:43:46;;;;;;;1.20;0.90;;;;;;;14.55;100.00;95287.19;5027827;27;105540;-80
2023/10/28 09:46:19;;;;;;;0.80;0.80;;;;;;;14.95;100.00;95291.63;5030632;28;105263;-80
2023/10/28 09:48:48;;;;;;;0.93;0.50;;;;;;;15.12;100.00;95282.91;5034855;28;101989;-80
2023/10/28 09:51:22;;;;;;;0.60;0.60;;;;;;;15.44;100.00;95286.16;5030685;28;105747;-80
2023/10/28 09:53:59;;;;;;;0.70;0.70;;;;;;;15.24;100.00;95285.81;5031439;28;101874;-80
2023/10/28 09:56:34;;;;;;;0.50;0.50;;;;;;;15.25;100.00;95282.84;5031402;27;105503;-80
2023/10/28 09:59:07;;;;;;;1.37;0.50;;;;;;;15.30;100.00;95285.41;5030530;28;104150;-80
2023/10/28 10:01:41;;;;;;;1.27;0.50;;;;;;;15.30;100.00;95284.59;5031097;28;101988;-80
2023/10/28 10:04:17;;;;;;;0.73;0.70;;;;;;;15.31;100.00;95286.19;5031334;28;104922;-80
2023/10/28 10:06:45;;;;;;;0.50;0.50;;;;;;;15.45;100.00;95286.94;5030525;28;105843;-80
2023/10/28 10:09:18;;;;;;;0.50;0.50;;;;;;;15.18;100.00;95284.38;5031054;28;101940;-80
2023/10/28 10:11:46;;;;;;;0.77;0.60;;;;;;;15.21;100.00;95281.09;5033843;28;105425;-80
2023/10/28 10:14:14;;;;;;;0.70;0.53;;;;;;;15.60;100.00;95278.50;5031129;28;101971;-80
2023/10/28 10:16:48;;;;;;;0.53;0.53;;;;;;;15.80;100.00;95284.09;5032679;27;102811;-80
2023/10/28 10:19:22;;;;;;;0.47;0.47;;;;;;;15.77;100.00;95286.63;5030526;28;105936;-80
2023/10/28 10:21:52;;;;;;;0.50;0.50;;;;;;;16.13;100.00;95279.97;5030845;28;102038;-80
2023/10/28 10:24:20;;;;;;;1.17;0.50;;;;;;;15.66;100.00;95283.44;5030899;28;105696;-80
2023/10/28 10:26:56;;;;;;;1.93;0.60;;;;;;;15.80;100.00;95270.72;5030091;28;105314;-80
2023/10/28 10:29:26;;;;;;;0.57;0.57;;;;;;;16.03;100.00;95266.84;5030899;28;101982;-80
2023/10/28 10:31:55;;;;;;;0.47;0.47;;;;;;;15.73;100.00;95272.25;5031026;28;105343;-80
2023/10/28 10:34:33;;;;;;;0.50;0.50;;;;;;;16.03;100.00;95263.38;5033437;28;105638;-80
2023/10/28 10:37:01;;;;;;;0.60;0.50;;;;;;;16.48;100.00;95262.06;5031932;27;103019;-80
2023/10/28 10:39:28;;;;;;;0.50;0.50;;;;;;;16.30;100.00;95252.41;5030038;28;105543;-80
2023/10/28 10:41:59;;;;;;;1.57;0.50;;;;;;;16.21;100.00;95244.34;5030435;28;101972;-80
2023/10/28 10:44:34;;;;;;;0.50;0.50;;;;;;;16.58;100.00;95240.31;5030702;28;104906;-80
2023/10/28 10:47:01;;;;;;;0.60;0.60;;;;;;;16.81;100.00;95241.72;5029845;28;105872;-80
2023/10/28 10:49:30;;;;;;;0.40;0.40;;;;;;;16.47;100.00;95247.09;5030543;28;102373;-80
2023/10/28 10:51:59;;;;;;;0.50;0.50;;;;;;;16.45;100.00;95241.25;5030322;28;104033;-80
2023/10/28 10:54:30;;;;;;;0.70;0.70;;;;;;;16.41;100.00;95251.81;5029830;28;105868;-80
2023/10/28 10:56:59;;;;;;;2.33;0.90;;;;;;;16.44;100.00;95245.00;5033432;27;102046;-80
2023/10/28 10:59:28;;;;;;;1.63;0.80;;;;;;;16.66;100.00;95247.56;5029629;28;105470;-80
2023/10/28 11:01:56;;;;;;;0.63;0.63;;;;;;;16.88;100.00;95240.16;5031572;27;101874;-80
2023/10/28 11:04:24;;;;;;;0.40;0.40;;;;;;;16.89;100.00;95246.31;5030379;28;105655;-80
2023/10/28 11:06:51;;;;;;;0.63;0.50;;;;;;;17.06;100.00;95248.97;5029397;28;105379;-80
2023/10/28 11:09:19;;;;;;;0.40;0.40;;;;;;;17.11;100.00;95243.44;5029971;28;102004;-80
2023/10/28 11:11:46;;;;;;;0.50;0.47;;;;;;;16.98;100.00;95239.81;5029805;28;103861;-80
2023/10/28 11:14:14;;;;;;;0.80;0.80;;;;;;;17.25;100.00;95241.34;5029601;28;105894;-80
2023/10/28 11:16:42;;;;;;;0.50;0.50;;;;;;;16.83;100.00;95244.88;5029937;28;102045;-80
2023/10/28 11:19:10;;;;;;;1.00;0.40;;;;;;;16.98;95.90;95249.75;5032885;28;105890;-80
2023/10/28 11:21:39;;;;;;;0.90;0.60;;;;;;;16.53;100.00;95256.56;5029926;28;101962;-80
2023/10/28 11:24:08;;;;;;;0.40;0.40;;;;;;;16.73;100.00;95247.91;5029955;28;105378;-80